createdAt,value
2018-04-07T00:02:13.314Z,5.60
2018-04-07T00:04:39.174Z,5.70
2018-04-07T00:07:05.037Z,5.40
2018-04-07T00:09:30.877Z,4.00
2018-04-07T00:11:56.727Z,4.70
2018-04-07T00:14:22.563Z,3.67
2018-04-07T00:16:48.413Z,6.97
2018-04-07T00:19:14.269Z,6.40
2018-04-07T00:21:40.127Z,7.40
2018-04-07T00:24:05.969Z,4.97
2018-04-07T00:26:31.808Z,5.87
2018-04-07T00:28:57.664Z,6.07
2018-04-07T00:31:23.530Z,4.93
2018-04-07T00:33:49.397Z,5.90
2018-04-07T00:36:15.251Z,9.30
2018-04-07T00:38:41.115Z,4.60
2018-04-07T00:41:06.969Z,5.13
2018-04-07T00:43:32.838Z,7.13
2018-04-07T00:45:58.688Z,6.33
2018-04-07T00:48:24.548Z,5.47
2018-04-07T00:50:50.411Z,5.97
2018-04-07T00:53:16.285Z,5.17
2018-04-07T00:55:42.164Z,4.63
2018-04-07T00:58:08.040Z,8.87
2018-04-07T01:00:33.915Z,7.00
2018-04-07T01:02:59.746Z,6.73
2018-04-07T01:05:25.634Z,7.10
2018-04-07T01:07:51.488Z,7.53
2018-04-07T01:10:17.344Z,8.03
2018-04-07T01:12:43.228Z,6.47
2018-04-07T01:15:09.071Z,7.13
2018-04-07T01:17:35.004Z,5.93
2018-04-07T01:20:00.838Z,6.93
2018-04-07T01:22:26.684Z,5.67
2018-04-07T01:24:52.529Z,4.87
2018-04-07T01:27:18.381Z,6.13
2018-04-07T01:29:44.229Z,6.13
2018-04-07T01:32:10.116Z,6.30
2018-04-07T01:34:35.962Z,4.43
2018-04-07T01:37:01.828Z,7.80
2018-04-07T01:39:27.699Z,5.90
2018-04-07T01:41:53.559Z,4.30
2018-04-07T01:44:19.425Z,7.03
2018-04-07T01:46:45.256Z,8.40
2018-04-07T01:49:11.100Z,4.63
2018-04-07T01:51:36.939Z,5.90
2018-04-07T01:54:02.799Z,9.43
2018-04-07T01:56:28.649Z,7.37
2018-04-07T01:58:54.541Z,8.00
2018-04-07T02:01:20.395Z,5.70
2018-04-07T02:03:46.221Z,5.27
2018-04-07T02:06:12.094Z,4.77
2018-04-07T02:08:37.934Z,6.67
2018-04-07T02:11:03.790Z,5.03
2018-04-07T02:13:29.632Z,5.43
2018-04-07T02:15:55.484Z,6.70
2018-04-07T02:18:21.307Z,4.47
2018-04-07T02:20:47.144Z,5.70
2018-04-07T02:23:12.990Z,7.37
2018-04-07T02:25:38.844Z,5.43
2018-04-07T02:28:04.709Z,7.73
2018-04-07T02:30:30.574Z,4.50
2018-04-07T02:32:56.449Z,6.97
2018-04-07T02:35:22.300Z,4.77
2018-04-07T02:37:48.155Z,8.17
2018-04-07T02:40:14.024Z,7.53
2018-04-07T02:42:39.947Z,6.57
2018-04-07T02:45:05.783Z,9.60
2018-04-07T02:47:31.629Z,6.13
2018-04-07T02:49:57.507Z,5.60
2018-04-07T02:52:23.349Z,7.37
2018-04-07T02:54:49.183Z,7.83
2018-04-07T02:57:15.051Z,7.17
2018-04-07T02:59:40.970Z,7.03
2018-04-07T03:02:06.841Z,5.53
2018-04-07T03:04:32.698Z,5.83
2018-04-07T03:06:58.563Z,6.97
2018-04-07T03:09:24.428Z,5.57
2018-04-07T03:11:50.293Z,9.27
2018-04-07T03:14:16.135Z,5.03
2018-04-07T03:16:41.989Z,5.83
2018-04-07T03:19:07.842Z,6.30
2018-04-07T03:21:33.710Z,5.03
2018-04-07T03:23:59.548Z,8.40
2018-04-07T03:26:25.415Z,6.27
2018-04-07T03:28:51.287Z,10.70
2018-04-07T03:31:17.127Z,5.90
2018-04-07T03:33:42.992Z,5.00
2018-04-07T03:36:08.848Z,6.03
2018-04-07T03:38:34.682Z,7.47
2018-04-07T03:41:00.514Z,8.27
2018-04-07T03:43:26.363Z,4.67
2018-04-07T03:45:52.232Z,6.77
2018-04-07T03:48:18.125Z,5.67
2018-04-07T03:50:43.964Z,5.60
2018-04-07T03:53:09.792Z,5.67
2018-04-07T03:55:35.644Z,7.73
2018-04-07T03:58:01.512Z,6.70
2018-04-07T04:00:27.374Z,6.40
2018-04-07T04:02:53.201Z,7.03
2018-04-07T04:05:19.101Z,7.80
2018-04-07T04:07:44.941Z,4.90
2018-04-07T04:10:10.860Z,7.97
2018-04-07T04:12:36.704Z,7.37
2018-04-07T04:15:03.133Z,6.33
2018-04-07T04:17:29.021Z,5.17
2018-04-07T04:19:54.860Z,6.63
2018-04-07T04:22:20.723Z,5.67
2018-04-07T04:24:46.566Z,6.30
2018-04-07T04:27:12.435Z,6.17
2018-04-07T04:29:38.284Z,5.87
2018-04-07T04:32:04.149Z,7.33
2018-04-07T04:34:29.997Z,7.33
2018-04-07T04:36:55.897Z,4.97
2018-04-07T04:39:21.762Z,6.83
2018-04-07T04:41:47.633Z,5.13
2018-04-07T04:44:13.483Z,5.77
2018-04-07T04:46:39.386Z,7.47
2018-04-07T04:49:05.233Z,5.50
2018-04-07T04:51:31.090Z,6.73
2018-04-07T04:53:56.957Z,5.43
2018-04-07T04:56:22.799Z,6.03
2018-04-07T04:58:48.632Z,5.30
2018-04-07T05:01:14.494Z,7.17
2018-04-07T05:03:40.336Z,6.83
2018-04-07T05:06:06.237Z,7.40
2018-04-07T05:08:32.088Z,6.70
2018-04-07T05:10:57.937Z,5.57
2018-04-07T05:13:23.797Z,6.33
2018-04-07T05:15:49.676Z,6.03
2018-04-07T05:18:15.526Z,6.37
2018-04-07T05:20:41.373Z,5.33
2018-04-07T05:23:07.269Z,8.03
2018-04-07T05:25:33.105Z,6.63
2018-04-07T05:27:58.998Z,9.40
2018-04-07T05:30:24.846Z,4.63
2018-04-07T05:32:50.798Z,5.87
2018-04-07T05:35:16.691Z,4.97
2018-04-07T05:37:42.533Z,4.67
2018-04-07T05:40:08.395Z,6.63
2018-04-07T05:42:34.249Z,6.50
2018-04-07T05:45:00.138Z,5.50
2018-04-07T05:47:26.050Z,6.77
2018-04-07T05:49:51.964Z,5.43
2018-04-07T05:52:17.841Z,6.37
2018-04-07T05:54:43.754Z,5.70
2018-04-07T05:57:09.584Z,5.47
2018-04-07T05:59:35.480Z,5.13
2018-04-07T06:02:01.338Z,6.60
2018-04-07T06:04:28.440Z,7.40
2018-04-07T06:06:54.357Z,5.77
2018-04-07T06:09:20.249Z,5.27
2018-04-07T06:11:46.224Z,4.93
2018-04-07T06:14:12.042Z,6.13
2018-04-07T06:16:38.020Z,5.97
2018-04-07T06:19:03.932Z,6.57
2018-04-07T06:21:29.820Z,5.67
2018-04-07T06:23:55.676Z,7.73
2018-04-07T06:26:21.534Z,8.63
2018-04-07T06:28:47.453Z,7.47
2018-04-07T06:31:13.330Z,6.20
2018-04-07T06:33:39.250Z,4.87
2018-04-07T06:36:05.129Z,5.37
2018-04-07T06:38:31.061Z,6.87
2018-04-07T06:40:57.090Z,6.13
2018-04-07T06:43:23.009Z,5.50
2018-04-07T06:45:48.930Z,5.47
2018-04-07T06:48:14.837Z,6.33
2018-04-07T06:50:40.733Z,6.97
2018-04-07T06:53:06.610Z,7.60
2018-04-07T06:55:32.517Z,6.60
2018-04-07T06:57:58.360Z,7.43
2018-04-07T07:00:24.249Z,5.83
2018-04-07T07:02:50.153Z,5.80
2018-04-07T07:05:16.073Z,7.43
2018-04-07T07:07:41.970Z,7.27
2018-04-07T07:10:07.819Z,7.07
2018-04-07T07:12:33.709Z,8.10
2018-04-07T07:14:59.560Z,4.80
2018-04-07T07:17:25.455Z,8.73
2018-04-07T07:19:51.309Z,8.43
2018-04-07T07:22:17.190Z,7.17
2018-04-07T07:24:43.088Z,9.00
2018-04-07T07:27:08.982Z,6.73
2018-04-07T07:29:34.828Z,5.83
2018-04-07T07:32:00.740Z,6.13
2018-04-07T07:34:26.621Z,5.30
2018-04-07T07:36:52.456Z,6.23
2018-04-07T07:39:18.311Z,7.37
2018-04-07T07:41:44.201Z,5.03
2018-04-07T07:44:25.076Z,7.30
2018-04-07T07:46:50.951Z,7.83
2018-04-07T07:49:16.831Z,5.43
2018-04-07T07:51:42.725Z,6.77
2018-04-07T07:54:08.601Z,6.00
2018-04-07T07:56:34.497Z,8.80
2018-04-07T07:59:00.353Z,6.30
2018-04-07T08:01:26.199Z,6.97
2018-04-07T08:03:52.853Z,6.20
2018-04-07T08:06:18.784Z,6.43
2018-04-07T08:08:44.650Z,7.73
2018-04-07T08:11:10.515Z,5.67
2018-04-07T08:13:36.405Z,9.53
2018-04-07T08:16:02.264Z,5.23
2018-04-07T08:18:28.127Z,6.17
2018-04-07T08:20:53.971Z,6.40
2018-04-07T08:23:19.847Z,8.60
2018-04-07T08:25:45.704Z,7.17
2018-04-07T08:28:11.578Z,6.63
2018-04-07T08:30:37.481Z,7.30
2018-04-07T08:33:03.381Z,6.53
2018-04-07T08:35:29.241Z,6.10
2018-04-07T08:37:55.127Z,7.53
2018-04-07T08:40:21.771Z,7.47
2018-04-07T08:42:47.618Z,7.07
2018-04-07T08:45:13.520Z,7.10
2018-04-07T08:47:39.376Z,7.70
2018-04-07T08:50:05.247Z,6.53
2018-04-07T08:52:31.111Z,7.63
2018-04-07T08:54:56.961Z,9.90
2018-04-07T08:57:22.842Z,5.77
2018-04-07T08:59:48.722Z,7.67
2018-04-07T09:02:14.613Z,7.47
2018-04-07T09:04:40.450Z,8.23
2018-04-07T09:07:06.329Z,6.63
2018-04-07T09:09:32.189Z,11.70
2018-04-07T09:11:58.076Z,7.17
2018-04-07T09:14:23.906Z,7.10
2018-04-07T09:16:49.763Z,10.93
2018-04-07T09:19:15.686Z,8.03
2018-04-07T09:21:41.548Z,8.37
2018-04-07T09:24:07.440Z,6.77
2018-04-07T09:26:33.318Z,6.97
2018-04-07T09:28:59.198Z,7.03
2018-04-07T09:31:25.081Z,7.43
2018-04-07T09:33:50.984Z,6.57
2018-04-07T09:36:16.869Z,7.67
2018-04-07T09:38:42.750Z,9.07
2018-04-07T09:41:08.650Z,9.27
2018-04-07T09:43:34.521Z,7.30
2018-04-07T09:46:00.410Z,7.60
2018-04-07T09:48:26.286Z,7.07
2018-04-07T09:50:52.200Z,7.77
2018-04-07T09:53:18.060Z,9.40
2018-04-07T09:55:43.944Z,6.50
2018-04-07T09:58:09.816Z,6.33
2018-04-07T10:00:35.758Z,6.87
2018-04-07T10:03:01.612Z,7.40
2018-04-07T10:05:27.490Z,8.27
2018-04-07T10:07:53.335Z,7.67
2018-04-07T10:10:19.184Z,6.10
2018-04-07T10:12:45.083Z,7.50
2018-04-07T10:15:10.949Z,6.87
2018-04-07T10:17:36.861Z,7.83
2018-04-07T10:20:02.729Z,6.73
2018-04-07T10:22:28.607Z,8.00
2018-04-07T10:24:54.502Z,7.13
2018-04-07T10:27:20.376Z,8.87
2018-04-07T10:29:46.260Z,6.40
2018-04-07T10:32:12.134Z,7.23
2018-04-07T10:34:38.001Z,7.10
2018-04-07T10:37:03.859Z,9.40
2018-04-07T10:39:29.772Z,10.47
2018-04-07T10:41:55.617Z,8.60
2018-04-07T10:44:21.498Z,7.57
2018-04-07T10:46:47.389Z,7.33
2018-04-07T10:49:13.285Z,7.60
2018-04-07T10:51:39.150Z,7.73
2018-04-07T10:54:05.053Z,8.53
2018-04-07T10:56:30.933Z,9.27
2018-04-07T10:58:56.804Z,8.17
2018-04-07T11:01:22.675Z,8.53
2018-04-07T11:03:48.559Z,7.27
2018-04-07T11:06:14.456Z,8.60
2018-04-07T11:08:40.347Z,9.10
2018-04-07T11:11:06.231Z,8.17
2018-04-07T11:13:32.115Z,8.47
2018-04-07T11:15:57.969Z,8.53
2018-04-07T11:18:23.839Z,9.83
2018-04-07T11:20:49.704Z,8.77
2018-04-07T11:23:15.568Z,7.73
2018-04-07T11:25:41.464Z,6.73
2018-04-07T11:28:07.344Z,8.93
2018-04-07T11:30:33.253Z,9.30
2018-04-07T11:32:59.105Z,7.17
2018-04-07T11:35:24.972Z,7.60
2018-04-07T11:37:50.822Z,7.23
2018-04-07T11:40:16.689Z,9.60
2018-04-07T11:42:42.562Z,7.20
2018-04-07T11:45:08.426Z,6.87
2018-04-07T11:47:34.324Z,9.03
2018-04-07T11:50:00.217Z,9.55
2018-04-07T11:52:26.136Z,8.25
2018-04-07T11:54:51.988Z,7.85
2018-04-07T11:57:17.836Z,7.82
2018-04-07T11:59:43.720Z,9.23
2018-04-07T12:02:09.624Z,8.50
2018-04-07T12:04:35.492Z,10.50
2018-04-07T12:07:01.348Z,7.65
2018-04-07T12:09:27.221Z,7.70
2018-04-07T12:11:53.711Z,7.80
2018-04-07T12:14:19.559Z,7.50
2018-04-07T12:16:45.439Z,7.32
2018-04-07T12:19:11.295Z,7.55
2018-04-07T12:21:37.146Z,7.57
2018-04-07T12:24:03.047Z,7.80
2018-04-07T12:26:28.929Z,7.68
2018-04-07T12:28:54.773Z,7.30
2018-04-07T12:31:20.629Z,7.45
2018-04-07T12:33:46.502Z,7.50
2018-04-07T12:36:12.376Z,7.78
2018-04-07T12:38:38.248Z,8.27
2018-04-07T12:41:04.115Z,8.45
2018-04-07T12:43:30.025Z,5.87
2018-04-07T12:45:55.882Z,7.97
2018-04-07T12:48:21.834Z,7.47
2018-04-07T12:50:47.715Z,7.97
2018-04-07T12:53:13.601Z,8.52
2018-04-07T12:55:39.455Z,7.68
2018-04-07T12:58:05.324Z,6.55
2018-04-07T13:00:31.224Z,7.37
2018-04-07T13:02:57.096Z,6.95
2018-04-07T13:05:22.964Z,6.40
2018-04-07T13:07:48.829Z,7.40
2018-04-07T13:10:14.695Z,6.07
2018-04-07T13:12:40.578Z,6.65
2018-04-07T13:15:06.427Z,6.68
2018-04-07T13:17:32.354Z,6.57
2018-04-07T13:19:58.231Z,6.45
2018-04-07T13:22:24.124Z,6.95
2018-04-07T13:24:49.989Z,6.53
2018-04-07T13:27:15.960Z,6.75
2018-04-07T13:29:42.056Z,6.97
2018-04-07T13:32:07.922Z,7.55
2018-04-07T13:34:33.831Z,7.55
2018-04-07T13:36:59.719Z,8.05
2018-04-07T13:39:25.601Z,7.95
2018-04-07T13:41:51.449Z,6.20
2018-04-07T13:44:17.312Z,7.47
2018-04-07T13:46:43.203Z,7.32
2018-04-07T13:49:09.099Z,7.90
2018-04-07T13:51:34.985Z,7.03
2018-04-07T13:54:00.869Z,7.43
2018-04-07T13:56:26.732Z,7.32
2018-04-07T13:58:52.659Z,6.85
2018-04-07T14:01:18.571Z,8.25
2018-04-07T14:03:44.436Z,7.90
2018-04-07T14:06:10.318Z,6.90
2018-04-07T14:08:36.208Z,8.38
2018-04-07T14:11:02.084Z,6.57
2018-04-07T14:13:27.989Z,8.13
2018-04-07T14:15:53.840Z,7.45
2018-04-07T14:18:19.742Z,6.57
2018-04-07T14:20:45.642Z,7.18
2018-04-07T14:23:11.509Z,8.88
2018-04-07T14:25:37.415Z,7.05
2018-04-07T14:28:03.284Z,7.65
2018-04-07T14:30:29.163Z,7.28
2018-04-07T14:32:55.020Z,7.97
2018-04-07T14:35:20.904Z,7.43
2018-04-07T14:37:46.765Z,6.68
2018-04-07T14:40:12.621Z,6.30
2018-04-07T14:42:38.506Z,6.47
2018-04-07T14:45:04.561Z,5.07
2018-04-07T14:47:30.443Z,6.80
2018-04-07T14:49:56.293Z,7.65
2018-04-07T14:52:22.161Z,8.73
2018-04-07T14:54:48.023Z,9.55
2018-04-07T14:57:13.908Z,9.43
2018-04-07T14:59:39.766Z,8.23
2018-04-07T15:02:05.710Z,7.90
2018-04-07T15:04:31.650Z,6.87
2018-04-07T15:06:57.548Z,8.15
2018-04-07T15:09:23.431Z,7.25
2018-04-07T15:11:49.292Z,7.32
2018-04-07T15:14:15.170Z,6.37
2018-04-07T15:16:41.060Z,7.15
2018-04-07T15:19:06.946Z,6.68
2018-04-07T15:21:32.781Z,6.32
2018-04-07T15:23:58.642Z,7.22
2018-04-07T15:26:24.511Z,5.97
2018-04-07T15:28:51.544Z,7.45
2018-04-07T15:31:17.420Z,6.78
2018-04-07T15:33:43.276Z,7.30
2018-04-07T15:36:09.138Z,6.37
2018-04-07T15:38:35.015Z,5.43
2018-04-07T15:41:00.906Z,7.93
2018-04-07T15:43:26.762Z,7.12
2018-04-07T15:45:52.649Z,7.07
2018-04-07T15:48:18.533Z,7.28
2018-04-07T15:50:44.373Z,9.55
2018-04-07T15:53:10.237Z,7.40
2018-04-07T15:55:36.091Z,7.00
2018-04-07T15:58:01.945Z,7.45
2018-04-07T16:00:28.021Z,7.05
2018-04-07T16:02:53.923Z,7.47
2018-04-07T16:05:20.408Z,8.55
2018-04-07T16:07:46.271Z,6.12
2018-04-07T16:10:12.162Z,7.43
2018-04-07T16:12:38.077Z,7.18
2018-04-07T16:15:03.909Z,8.00
2018-04-07T16:17:30.459Z,7.18
2018-04-07T16:19:56.333Z,6.47
2018-04-07T16:22:22.216Z,8.05
2018-04-07T16:24:48.063Z,10.10
2018-04-07T16:27:13.915Z,8.50
2018-04-07T16:29:39.779Z,6.28
2018-04-07T16:32:05.674Z,8.00
2018-04-07T16:34:31.532Z,7.30
2018-04-07T16:36:57.407Z,7.62
2018-04-07T16:39:23.303Z,8.18
2018-04-07T16:41:49.213Z,8.77
2018-04-07T16:44:15.757Z,7.32
2018-04-07T16:46:41.644Z,6.90
2018-04-07T16:49:07.567Z,7.25
2018-04-07T16:51:33.456Z,7.35
2018-04-07T16:53:59.308Z,7.80
2018-04-07T16:56:25.181Z,7.87
2018-04-07T16:58:51.022Z,8.00
2018-04-07T17:01:16.926Z,7.97
2018-04-07T17:03:42.772Z,7.93
2018-04-07T17:06:08.689Z,8.27
2018-04-07T17:08:34.641Z,7.75
2018-04-07T17:11:00.516Z,8.40
2018-04-07T17:13:26.407Z,6.87
2018-04-07T17:15:52.268Z,7.57
2018-04-07T17:18:18.191Z,9.03
2018-04-07T17:20:44.110Z,7.63
2018-04-07T17:23:09.968Z,8.10
2018-04-07T17:25:35.837Z,7.83
2018-04-07T17:28:01.693Z,11.10
2018-04-07T17:30:27.584Z,8.10
2018-04-07T17:32:53.611Z,10.93
2018-04-07T17:35:19.489Z,8.33
2018-04-07T17:37:45.919Z,7.97
2018-04-07T17:40:11.811Z,9.50
2018-04-07T17:42:37.711Z,8.27
2018-04-07T17:45:03.572Z,10.43
2018-04-07T17:47:29.464Z,8.77
2018-04-07T17:49:55.344Z,8.87
2018-04-07T17:52:21.233Z,8.50
2018-04-07T17:54:47.134Z,8.20
2018-04-07T17:57:13.013Z,10.53
2018-04-07T17:59:38.924Z,9.03
2018-04-07T18:02:04.807Z,8.37
2018-04-07T18:04:30.648Z,10.87
2018-04-07T18:06:56.505Z,8.10
2018-04-07T18:09:22.394Z,8.10
2018-04-07T18:11:48.316Z,9.20
2018-04-07T18:14:14.182Z,10.40
2018-04-07T18:16:40.075Z,8.77
2018-04-07T18:19:06.006Z,8.97
2018-04-07T18:21:31.876Z,8.77
2018-04-07T18:23:57.751Z,8.77
2018-04-07T18:26:23.661Z,10.83
2018-04-07T18:28:49.512Z,10.73
2018-04-07T18:31:15.430Z,7.30
2018-04-07T18:33:41.341Z,8.67
2018-04-07T18:36:07.281Z,8.27
2018-04-07T18:38:33.209Z,10.87
2018-04-07T18:40:59.115Z,8.47
2018-04-07T18:43:24.990Z,7.60
2018-04-07T18:45:50.900Z,7.57
2018-04-07T18:48:16.814Z,8.07
2018-04-07T18:50:42.708Z,9.00
2018-04-07T18:53:08.613Z,8.10
2018-04-07T18:55:34.516Z,10.20
2018-04-07T18:58:00.383Z,9.10
2018-04-07T19:00:26.258Z,7.93
2018-04-07T19:02:52.218Z,7.30
2018-04-07T19:05:18.111Z,7.67
2018-04-07T19:07:44.062Z,7.73
2018-04-07T19:10:09.989Z,7.53
2018-04-07T19:12:35.867Z,8.37
2018-04-07T19:15:02.288Z,7.87
2018-04-07T19:17:29.136Z,9.03
2018-04-07T19:19:55.040Z,6.83
2018-04-07T19:22:21.007Z,7.03
2018-04-07T19:24:48.243Z,7.37
2018-04-07T19:27:14.238Z,8.23
2018-04-07T19:29:40.739Z,7.63
2018-04-07T19:32:06.640Z,7.33
2018-04-07T19:34:32.628Z,8.57
2018-04-07T19:36:58.518Z,8.93
2018-04-07T19:39:24.429Z,8.87
2018-04-07T19:41:50.405Z,8.40
2018-04-07T19:44:16.350Z,10.90
2018-04-07T19:46:42.298Z,10.10
2018-04-07T19:49:08.236Z,11.70
2018-04-07T19:51:34.114Z,12.33
2018-04-07T19:54:00.066Z,13.03
2018-04-07T19:56:25.984Z,12.57
2018-04-07T19:58:51.930Z,14.30
2018-04-07T20:01:17.849Z,13.27
2018-04-07T20:03:43.717Z,14.97
2018-04-07T20:06:09.662Z,13.60
2018-04-07T20:08:35.597Z,12.33
2018-04-07T20:11:01.540Z,17.50
2018-04-07T20:13:27.451Z,13.97
2018-04-07T20:15:53.408Z,15.43
2018-04-07T20:18:19.331Z,16.00
2018-04-07T20:20:46.102Z,15.30
2018-04-07T20:23:12.061Z,15.87
2018-04-07T20:25:37.960Z,15.97
2018-04-07T20:28:03.860Z,17.53
2018-04-07T20:30:30.354Z,14.97
2018-04-07T20:32:56.866Z,15.87
2018-04-07T20:35:22.762Z,17.33
2018-04-07T20:37:48.611Z,17.27
2018-04-07T20:40:15.044Z,17.63
2018-04-07T20:42:40.883Z,16.77
2018-04-07T20:45:06.740Z,16.20
2018-04-07T20:47:32.671Z,17.17
2018-04-07T20:49:58.531Z,15.93
2018-04-07T20:52:25.029Z,17.00
2018-04-07T20:54:51.882Z,16.80
2018-04-07T20:57:17.768Z,17.27
2018-04-07T20:59:43.635Z,16.50
2018-04-07T21:02:09.517Z,18.00
2018-04-07T21:04:35.441Z,16.93
2018-04-07T21:07:01.311Z,15.87
2018-04-07T21:09:27.309Z,13.13
2018-04-07T21:11:53.210Z,15.80
2018-04-07T21:14:19.135Z,15.93
2018-04-07T21:16:45.006Z,14.77
2018-04-07T21:19:10.966Z,14.40
2018-04-07T21:21:36.814Z,14.93
2018-04-07T21:24:02.762Z,15.63
2018-04-07T21:26:28.631Z,14.30
2018-04-07T21:28:54.470Z,18.23
2018-04-07T21:31:20.366Z,14.20
2018-04-07T21:33:46.267Z,15.53
2018-04-07T21:36:12.146Z,13.57
2018-04-07T21:38:38.001Z,17.40
2018-04-07T21:41:03.908Z,15.43
2018-04-07T21:43:29.780Z,15.20
2018-04-07T21:45:55.664Z,14.33
2018-04-07T21:48:21.562Z,15.87
2018-04-07T21:50:47.443Z,15.27
2018-04-07T21:53:13.336Z,14.70
2018-04-07T21:55:39.207Z,13.90
2018-04-07T21:58:05.099Z,14.80
2018-04-07T22:00:30.966Z,15.17
2018-04-07T22:02:56.835Z,13.67
2018-04-07T22:05:22.663Z,15.43
2018-04-07T22:07:48.529Z,16.80
2018-04-07T22:10:14.414Z,16.27
2018-04-07T22:12:40.318Z,14.53
2018-04-07T22:15:06.210Z,13.17
2018-04-07T22:17:32.093Z,15.67
2018-04-07T22:19:57.973Z,14.30
2018-04-07T22:22:23.867Z,15.43
2018-04-07T22:24:49.749Z,13.57
2018-04-07T22:27:15.616Z,15.40
2018-04-07T22:29:41.475Z,17.20
2018-04-07T22:32:07.323Z,14.67
2018-04-07T22:34:33.200Z,14.17
2018-04-07T22:36:59.031Z,11.67
2018-04-07T22:39:24.875Z,14.90
2018-04-07T22:41:50.768Z,13.90
2018-04-07T22:44:16.617Z,13.80
2018-04-07T22:46:42.525Z,14.47
2018-04-07T22:49:08.402Z,12.33
2018-04-07T22:51:34.264Z,13.10
2018-04-07T22:54:00.125Z,14.10
2018-04-07T22:56:26.063Z,13.30
2018-04-07T22:58:51.915Z,12.83
2018-04-07T23:01:17.744Z,14.37
2018-04-07T23:03:43.604Z,13.20
2018-04-07T23:06:09.476Z,12.57
2018-04-07T23:08:35.341Z,13.50
2018-04-07T23:11:01.187Z,13.67
2018-04-07T23:13:27.053Z,14.63
2018-04-07T23:15:52.931Z,13.43
2018-04-07T23:18:18.829Z,15.73
2018-04-07T23:20:44.673Z,13.47
2018-04-07T23:23:10.522Z,14.30
2018-04-07T23:25:36.401Z,13.87
2018-04-07T23:28:02.234Z,12.60
2018-04-07T23:30:28.095Z,15.20
2018-04-07T23:32:53.963Z,11.43
2018-04-07T23:35:19.854Z,12.87
2018-04-07T23:37:45.705Z,14.33
2018-04-07T23:40:11.549Z,14.40
2018-04-07T23:42:37.419Z,14.90
2018-04-07T23:45:03.285Z,13.27
2018-04-07T23:47:29.160Z,13.23
2018-04-07T23:49:55.015Z,13.10
2018-04-07T23:52:20.866Z,12.00
2018-04-07T23:54:46.709Z,12.87
2018-04-07T23:57:12.596Z,13.20
2018-04-07T23:59:38.472Z,12.77
